sensor_id;sensor_type;location;lat;lon;timestamp;pressure;altitude;pressure_sealevel;temperature;humidity
69247;BME280;56358;56.328;43.992;2023-07-22T00:00:28;99732.69;;;14.44;85.27
69247;BME280;56358;56.328;43.992;2023-07-22T00:02:29;99735.72;;;14.49;85.34
69247;BME280;56358;56.328;43.992;2023-07-22T00:04:31;99681.38;;;14.19;84.89
69247;BME280;56358;56.328;43.992;2023-07-22T00:06:31;99748.41;;;14.57;84.58
69247;BME280;56358;56.328;43.992;2023-07-22T00:08:33;99752.63;;;14.59;84.30
69247;BME280;56358;56.328;43.992;2023-07-22T00:10:34;99756.19;;;14.60;84.20
69247;BME280;56358;56.328;43.992;2023-07-22T00:12:35;99755.16;;;14.61;83.83
69247;BME280;56358;56.328;43.992;2023-07-22T00:14:40;99736.75;;;14.48;83.71
69247;BME280;56358;56.328;43.992;2023-07-22T00:16:41;99747.03;;;14.53;83.47
69247;BME280;56358;56.328;43.992;2023-07-22T00:18:42;99753.78;;;14.57;83.04
69247;BME280;56358;56.328;43.992;2023-07-22T00:20:42;99767.44;;;14.55;82.89
69247;BME280;56358;56.328;43.992;2023-07-22T00:22:43;99763.75;;;14.56;82.95
69247;BME280;56358;56.328;43.992;2023-07-22T00:24:44;99755.66;;;14.56;82.50
69247;BME280;56358;56.328;43.992;2023-07-22T00:26:44;99750.25;;;14.48;82.44
69247;BME280;56358;56.328;43.992;2023-07-22T00:28:45;99765.44;;;14.57;82.72
69247;BME280;56358;56.328;43.992;2023-07-22T00:30:46;99760.19;;;14.56;82.49
69247;BME280;56358;56.328;43.992;2023-07-22T00:32:50;99758.69;;;14.53;82.01
69247;BME280;56358;56.328;43.992;2023-07-22T00:34:50;99747.53;;;14.48;82.09
69247;BME280;56358;56.328;43.992;2023-07-22T00:36:51;99770.31;;;14.54;81.97
69247;BME280;56358;56.328;43.992;2023-07-22T00:38:52;99760.53;;;14.53;81.75
69247;BME280;56358;56.328;43.992;2023-07-22T00:40:53;99772.00;;;14.55;82.05
69247;BME280;56358;56.328;43.992;2023-07-22T00:42:54;99758.81;;;14.44;82.16
69247;BME280;56358;56.328;43.992;2023-07-22T00:44:54;99780.41;;;14.52;82.02
69247;BME280;56358;56.328;43.992;2023-07-22T00:46:56;99758.59;;;14.37;82.12
69247;BME280;56358;56.328;43.992;2023-07-22T00:48:58;99763.84;;;14.38;82.05
69247;BME280;56358;56.328;43.992;2023-07-22T00:50:58;99757.25;;;14.33;81.66
69247;BME280;56358;56.328;43.992;2023-07-22T00:52:59;99704.19;;;13.99;81.40
69247;BME280;56358;56.328;43.992;2023-07-22T00:55:01;99767.03;;;14.34;81.19
69247;BME280;56358;56.328;43.992;2023-07-22T00:57:10;99645.41;;;13.60;80.75
69247;BME280;56358;56.328;43.992;2023-07-22T00:59:12;99773.59;;;14.31;80.84
69247;BME280;56358;56.328;43.992;2023-07-22T01:01:14;99709.22;;;13.94;80.61
69247;BME280;56358;56.328;43.992;2023-07-22T01:03:14;99780.69;;;14.32;80.65
69247;BME280;56358;56.328;43.992;2023-07-22T01:05:15;99783.88;;;14.36;80.99
69247;BME280;56358;56.328;43.992;2023-07-22T01:07:17;99788.56;;;14.25;80.88
69247;BME280;56358;56.328;43.992;2023-07-22T01:09:18;99797.53;;;14.34;80.61
69247;BME280;56358;56.328;43.992;2023-07-22T01:11:18;99737.38;;;13.99;80.72
69247;BME280;56358;56.328;43.992;2023-07-22T01:13:19;99793.78;;;14.27;80.79
69247;BME280;56358;56.328;43.992;2023-07-22T01:15:20;99767.72;;;14.01;81.18
69247;BME280;56358;56.328;43.992;2023-07-22T01:17:22;99818.59;;;14.31;80.86
69247;BME280;56358;56.328;43.992;2023-07-22T01:19:23;99679.34;;;13.52;80.42
69247;BME280;56358;56.328;43.992;2023-07-22T01:21:24;99791.72;;;14.21;80.72
69247;BME280;56358;56.328;43.992;2023-07-22T01:23:25;99806.09;;;14.30;80.69
69247;BME280;56358;56.328;43.992;2023-07-22T01:25:26;99783.75;;;14.11;80.47
69247;BME280;56358;56.328;43.992;2023-07-22T01:27:27;99812.50;;;14.29;80.20
69247;BME280;56358;56.328;43.992;2023-07-22T01:29:28;99810.50;;;14.31;80.54
69247;BME280;56358;56.328;43.992;2023-07-22T01:31:28;99804.38;;;14.20;80.33
69247;BME280;56358;56.328;43.992;2023-07-22T01:33:29;99802.00;;;14.17;80.10
69247;BME280;56358;56.328;43.992;2023-07-22T01:35:30;99806.56;;;14.25;79.90
69247;BME280;56358;56.328;43.992;2023-07-22T01:37:30;99815.34;;;14.27;80.11
69247;BME280;56358;56.328;43.992;2023-07-22T01:39:32;99815.97;;;14.21;79.30
69247;BME280;56358;56.328;43.992;2023-07-22T01:41:33;99809.06;;;14.18;79.74
69247;BME280;56358;56.328;43.992;2023-07-22T01:43:33;99828.34;;;14.32;79.32
69247;BME280;56358;56.328;43.992;2023-07-22T01:45:34;99780.16;;;14.02;79.36
69247;BME280;56358;56.328;43.992;2023-07-22T01:47:35;99807.59;;;14.24;79.01
69247;BME280;56358;56.328;43.992;2023-07-22T01:49:36;99821.53;;;14.19;78.45
69247;BME280;56358;56.328;43.992;2023-07-22T01:51:37;99846.22;;;14.33;78.39
69247;BME280;56358;56.328;43.992;2023-07-22T01:53:38;99834.44;;;14.34;78.28
69247;BME280;56358;56.328;43.992;2023-07-22T01:55:39;99837.81;;;14.36;78.11
69247;BME280;56358;56.328;43.992;2023-07-22T01:57:39;99846.44;;;14.39;78.06
69247;BME280;56358;56.328;43.992;2023-07-22T01:59:41;99847.13;;;14.41;77.89
69247;BME280;56358;56.328;43.992;2023-07-22T02:01:41;99838.69;;;14.45;77.41
69247;BME280;56358;56.328;43.992;2023-07-22T02:03:42;99832.78;;;14.41;77.26
69247;BME280;56358;56.328;43.992;2023-07-22T02:05:43;99847.50;;;14.47;76.89
69247;BME280;56358;56.328;43.992;2023-07-22T02:07:44;99842.94;;;14.47;76.95
69247;BME280;56358;56.328;43.992;2023-07-22T02:09:45;99832.47;;;14.44;76.38
69247;BME280;56358;56.328;43.992;2023-07-22T02:11:45;99853.56;;;14.49;76.32
69247;BME280;56358;56.328;43.992;2023-07-22T02:13:46;99832.91;;;14.31;75.80
69247;BME280;56358;56.328;43.992;2023-07-22T02:15:47;99850.72;;;14.58;75.48
69247;BME280;56358;56.328;43.992;2023-07-22T02:17:48;99853.81;;;14.64;75.88
69247;BME280;56358;56.328;43.992;2023-07-22T02:19:49;99797.69;;;14.33;75.62
69247;BME280;56358;56.328;43.992;2023-07-22T02:21:50;99824.88;;;14.48;75.64
69247;BME280;56358;56.328;43.992;2023-07-22T02:23:51;99868.69;;;14.68;75.58
69247;BME280;56358;56.328;43.992;2023-07-22T02:25:53;99839.28;;;14.56;75.17
69247;BME280;56358;56.328;43.992;2023-07-22T02:27:53;99861.13;;;14.71;75.37
69247;BME280;56358;56.328;43.992;2023-07-22T02:29:54;99841.81;;;14.58;75.23
69247;BME280;56358;56.328;43.992;2023-07-22T02:31:55;99859.44;;;14.79;75.11
69247;BME280;56358;56.328;43.992;2023-07-22T02:33:55;99861.16;;;14.80;74.77
69247;BME280;56358;56.328;43.992;2023-07-22T02:35:56;99858.97;;;14.83;74.46
69247;BME280;56358;56.328;43.992;2023-07-22T02:37:57;99856.28;;;14.83;74.47
69247;BME280;56358;56.328;43.992;2023-07-22T02:39:57;99788.63;;;14.42;73.96
69247;BME280;56358;56.328;43.992;2023-07-22T02:41:58;99867.09;;;14.91;74.04
69247;BME280;56358;56.328;43.992;2023-07-22T02:43:59;99868.47;;;14.96;73.79
69247;BME280;56358;56.328;43.992;2023-07-22T02:46:01;99864.06;;;14.95;74.08
69247;BME280;56358;56.328;43.992;2023-07-22T02:48:02;99852.91;;;14.89;73.97
69247;BME280;56358;56.328;43.992;2023-07-22T02:50:06;99785.66;;;14.53;73.94
69247;BME280;56358;56.328;43.992;2023-07-22T02:52:07;99879.13;;;15.05;73.37
69247;BME280;56358;56.328;43.992;2023-07-22T02:54:08;99876.41;;;15.05;73.09
69247;BME280;56358;56.328;43.992;2023-07-22T02:56:09;99862.09;;;15.05;72.51
69247;BME280;56358;56.328;43.992;2023-07-22T02:58:12;99860.72;;;15.01;72.13
69247;BME280;56358;56.328;43.992;2023-07-22T03:00:18;99887.78;;;15.17;72.52
69247;BME280;56358;56.328;43.992;2023-07-22T03:02:24;99886.59;;;15.20;72.07
69247;BME280;56358;56.328;43.992;2023-07-22T03:04:25;99820.03;;;14.86;71.92
69247;BME280;56358;56.328;43.992;2023-07-22T03:06:26;99871.44;;;15.27;71.66
69247;BME280;56358;56.328;43.992;2023-07-22T03:08:27;99879.38;;;15.29;71.19
69247;BME280;56358;56.328;43.992;2023-07-22T03:10:28;99876.00;;;15.35;71.34
69247;BME280;56358;56.328;43.992;2023-07-22T03:12:30;99865.38;;;15.33;71.37
69247;BME280;56358;56.328;43.992;2023-07-22T03:14:30;99876.53;;;15.47;71.00
69247;BME280;56358;56.328;43.992;2023-07-22T03:16:36;99893.09;;;15.52;70.73
69247;BME280;56358;56.328;43.992;2023-07-22T03:18:37;99818.75;;;15.15;70.50
69247;BME280;56358;56.328;43.992;2023-07-22T03:20:40;99896.81;;;15.59;70.37
69247;BME280;56358;56.328;43.992;2023-07-22T03:22:41;99878.56;;;15.53;70.06
69247;BME280;56358;56.328;43.992;2023-07-22T03:24:43;99904.78;;;15.69;69.85
69247;BME280;56358;56.328;43.992;2023-07-22T03:26:44;99906.44;;;15.70;69.68
69247;BME280;56358;56.328;43.992;2023-07-22T03:28:45;99885.16;;;15.58;69.24
69247;BME280;56358;56.328;43.992;2023-07-22T03:30:46;99893.78;;;15.70;69.50
69247;BME280;56358;56.328;43.992;2023-07-22T03:32:47;99832.66;;;15.45;69.25
69247;BME280;56358;56.328;43.992;2023-07-22T03:34:48;99907.16;;;15.88;69.36
69247;BME280;56358;56.328;43.992;2023-07-22T03:36:49;99894.00;;;15.94;68.95
69247;BME280;56358;56.328;43.992;2023-07-22T03:38:50;99895.16;;;15.99;68.88
69247;BME280;56358;56.328;43.992;2023-07-22T03:40:50;99908.03;;;16.05;68.57
69247;BME280;56358;56.328;43.992;2023-07-22T03:42:54;99907.34;;;16.12;68.07
69247;BME280;56358;56.328;43.992;2023-07-22T03:44:55;99899.59;;;16.17;68.37
69247;BME280;56358;56.328;43.992;2023-07-22T03:46:56;99896.88;;;16.25;68.43
69247;BME280;56358;56.328;43.992;2023-07-22T03:48:57;99900.75;;;16.31;67.86
69247;BME280;56358;56.328;43.992;2023-07-22T03:50:57;99903.94;;;16.42;67.57
69247;BME280;56358;56.328;43.992;2023-07-22T03:52:58;99883.66;;;16.38;67.07
69247;BME280;56358;56.328;43.992;2023-07-22T03:54:59;99881.94;;;16.46;67.05
69247;BME280;56358;56.328;43.992;2023-07-22T03:57:00;99836.84;;;16.21;66.91
69247;BME280;56358;56.328;43.992;2023-07-22T03:59:00;99906.56;;;16.67;66.38
69247;BME280;56358;56.328;43.992;2023-07-22T04:01:01;99906.03;;;16.80;66.23
69247;BME280;56358;56.328;43.992;2023-07-22T04:03:02;99901.41;;;16.89;66.38
69247;BME280;56358;56.328;43.992;2023-07-22T04:05:03;99887.06;;;16.88;65.74
69247;BME280;56358;56.328;43.992;2023-07-22T04:07:04;99904.81;;;16.99;65.55
69247;BME280;56358;56.328;43.992;2023-07-22T04:09:08;99894.94;;;17.06;65.62
69247;BME280;56358;56.328;43.992;2023-07-22T04:11:09;99810.69;;;16.62;64.90
69247;BME280;56358;56.328;43.992;2023-07-22T04:13:09;99884.09;;;17.15;64.90
69247;BME280;56358;56.328;43.992;2023-07-22T04:15:10;99896.59;;;17.24;63.95
69247;BME280;56358;56.328;43.992;2023-07-22T04:17:12;99904.53;;;17.25;63.64
69247;BME280;56358;56.328;43.992;2023-07-22T04:19:15;99910.91;;;17.33;63.33
69247;BME280;56358;56.328;43.992;2023-07-22T04:21:17;99907.31;;;17.40;63.40
69247;BME280;56358;56.328;43.992;2023-07-22T04:23:17;99908.97;;;17.50;63.33
69247;BME280;56358;56.328;43.992;2023-07-22T04:25:18;99910.78;;;17.57;63.25
69247;BME280;56358;56.328;43.992;2023-07-22T04:27:20;99879.78;;;17.52;63.27
69247;BME280;56358;56.328;43.992;2023-07-22T04:29:21;99837.47;;;17.28;62.84
69247;BME280;56358;56.328;43.992;2023-07-22T04:31:21;99909.41;;;17.85;62.68
69247;BME280;56358;56.328;43.992;2023-07-22T04:33:22;99913.09;;;17.92;62.46
69247;BME280;56358;56.328;43.992;2023-07-22T04:35:22;99907.00;;;17.90;62.16
69247;BME280;56358;56.328;43.992;2023-07-22T04:37:23;99846.00;;;17.63;61.73
69247;BME280;56358;56.328;43.992;2023-07-22T04:39:24;99926.03;;;18.05;61.57
69247;BME280;56358;56.328;43.992;2023-07-22T04:41:25;99924.66;;;18.09;61.09
69247;BME280;56358;56.328;43.992;2023-07-22T04:43:26;99922.13;;;18.07;61.71
69247;BME280;56358;56.328;43.992;2023-07-22T04:45:27;99903.66;;;18.03;61.39
69247;BME280;56358;56.328;43.992;2023-07-22T04:47:27;99923.00;;;18.23;61.32
69247;BME280;56358;56.328;43.992;2023-07-22T04:49:28;99930.03;;;18.32;61.23
69247;BME280;56358;56.328;43.992;2023-07-22T04:51:29;99870.22;;;18.11;60.78
69247;BME280;56358;56.328;43.992;2023-07-22T04:53:30;99917.25;;;18.41;60.06
69247;BME280;56358;56.328;43.992;2023-07-22T04:55:31;99926.03;;;18.43;59.90
69247;BME280;56358;56.328;43.992;2023-07-22T04:57:33;99897.78;;;18.37;59.98
69247;BME280;56358;56.328;43.992;2023-07-22T04:59:33;99897.88;;;18.44;60.10
69247;BME280;56358;56.328;43.992;2023-07-22T05:01:34;99918.19;;;18.63;59.57
69247;BME280;56358;56.328;43.992;2023-07-22T05:03:35;99849.03;;;18.29;59.59
69247;BME280;56358;56.328;43.992;2023-07-22T05:05:36;99895.66;;;18.63;59.17
69247;BME280;56358;56.328;43.992;2023-07-22T05:07:36;99850.03;;;18.43;58.95
69247;BME280;56358;56.328;43.992;2023-07-22T05:09:37;99919.66;;;18.89;58.66
69247;BME280;56358;56.328;43.992;2023-07-22T05:11:38;99863.25;;;18.61;58.35
69247;BME280;56358;56.328;43.992;2023-07-22T05:13:38;99914.75;;;18.99;58.12
69247;BME280;56358;56.328;43.992;2023-07-22T05:15:39;99901.97;;;18.93;58.04
69247;BME280;56358;56.328;43.992;2023-07-22T05:17:40;99901.19;;;18.99;57.92
69247;BME280;56358;56.328;43.992;2023-07-22T05:19:41;99924.38;;;19.17;57.31
69247;BME280;56358;56.328;43.992;2023-07-22T05:21:41;99915.25;;;19.03;57.42
69247;BME280;56358;56.328;43.992;2023-07-22T05:23:42;99922.56;;;19.02;57.18
69247;BME280;56358;56.328;43.992;2023-07-22T05:25:43;99918.34;;;19.00;57.12
69247;BME280;56358;56.328;43.992;2023-07-22T05:27:44;99920.38;;;18.98;57.15
69247;BME280;56358;56.328;43.992;2023-07-22T05:29:44;99918.25;;;18.93;57.64
69247;BME280;56358;56.328;43.992;2023-07-22T05:31:46;99920.19;;;18.99;57.46
69247;BME280;56358;56.328;43.992;2023-07-22T05:33:47;99915.53;;;19.08;57.63
69247;BME280;56358;56.328;43.992;2023-07-22T05:35:48;99910.56;;;19.12;57.06
69247;BME280;56358;56.328;43.992;2023-07-22T05:37:49;99937.69;;;19.26;56.80
69247;BME280;56358;56.328;43.992;2023-07-22T05:39:49;99928.13;;;19.31;56.05
69247;BME280;56358;56.328;43.992;2023-07-22T05:41:50;99913.75;;;19.37;56.32
69247;BME280;56358;56.328;43.992;2023-07-22T05:43:51;99920.41;;;19.49;55.44
69247;BME280;56358;56.328;43.992;2023-07-22T05:45:52;99924.22;;;19.55;55.43
69247;BME280;56358;56.328;43.992;2023-07-22T05:47:52;99874.63;;;19.31;55.78
69247;BME280;56358;56.328;43.992;2023-07-22T05:49:53;99931.50;;;19.69;55.40
69247;BME280;56358;56.328;43.992;2023-07-22T05:51:54;99918.53;;;19.71;55.20
69247;BME280;56358;56.328;43.992;2023-07-22T05:53:55;99860.81;;;19.48;55.09
69247;BME280;56358;56.328;43.992;2023-07-22T05:55:55;99925.44;;;19.89;54.10
69247;BME280;56358;56.328;43.992;2023-07-22T05:57:56;99915.84;;;19.93;54.46
69247;BME280;56358;56.328;43.992;2023-07-22T05:59:57;99925.75;;;20.01;54.17
69247;BME280;56358;56.328;43.992;2023-07-22T06:01:58;99925.19;;;20.05;53.39
69247;BME280;56358;56.328;43.992;2023-07-22T06:03:58;99846.75;;;19.66;53.39
69247;BME280;56358;56.328;43.992;2023-07-22T06:05:59;99866.19;;;19.84;53.01
69247;BME280;56358;56.328;43.992;2023-07-22T06:08:00;99902.63;;;20.12;52.96
69247;BME280;56358;56.328;43.992;2023-07-22T06:10:00;99909.56;;;20.14;52.37
69247;BME280;56358;56.328;43.992;2023-07-22T06:12:01;99861.91;;;19.97;51.57
69247;BME280;56358;56.328;43.992;2023-07-22T06:14:02;99846.63;;;19.96;50.63
69247;BME280;56358;56.328;43.992;2023-07-22T06:16:03;99917.31;;;20.39;50.26
69247;BME280;56358;56.328;43.992;2023-07-22T06:18:04;99902.41;;;20.35;50.02
69247;BME280;56358;56.328;43.992;2023-07-22T06:20:10;99848.47;;;20.17;50.43
69247;BME280;56358;56.328;43.992;2023-07-22T06:22:10;99911.81;;;20.60;50.18
69247;BME280;56358;56.328;43.992;2023-07-22T06:24:11;99912.94;;;20.73;49.67
69247;BME280;56358;56.328;43.992;2023-07-22T06:26:12;99908.19;;;20.82;48.60
69247;BME280;56358;56.328;43.992;2023-07-22T06:28:12;99908.63;;;20.85;48.80
69247;BME280;56358;56.328;43.992;2023-07-22T06:30:13;99902.97;;;20.87;48.60
69247;BME280;56358;56.328;43.992;2023-07-22T06:32:14;99855.25;;;20.63;48.03
69247;BME280;56358;56.328;43.992;2023-07-22T06:34:14;99916.28;;;21.03;48.10
69247;BME280;56358;56.328;43.992;2023-07-22T06:36:15;99905.41;;;21.10;47.48
69247;BME280;56358;56.328;43.992;2023-07-22T06:38:18;99902.91;;;21.15;47.40
69247;BME280;56358;56.328;43.992;2023-07-22T06:40:18;99905.22;;;21.18;47.15
69247;BME280;56358;56.328;43.992;2023-07-22T06:42:20;99890.97;;;21.23;47.21
69247;BME280;56358;56.328;43.992;2023-07-22T06:44:20;99897.50;;;21.29;46.85
69247;BME280;56358;56.328;43.992;2023-07-22T06:46:21;99895.44;;;21.37;46.69
69247;BME280;56358;56.328;43.992;2023-07-22T06:48:22;99889.78;;;21.46;46.08
69247;BME280;56358;56.328;43.992;2023-07-22T06:50:23;99882.03;;;21.42;44.67
69247;BME280;56358;56.328;43.992;2023-07-22T06:52:24;99889.41;;;21.49;44.26
69247;BME280;56358;56.328;43.992;2023-07-22T06:54:25;99835.16;;;21.12;44.28
69247;BME280;56358;56.328;43.992;2023-07-22T06:56:26;99890.22;;;21.49;43.95
69247;BME280;56358;56.328;43.992;2023-07-22T06:58:26;99885.66;;;21.56;43.94
69247;BME280;56358;56.328;43.992;2023-07-22T07:00:28;99889.84;;;21.59;43.00
69247;BME280;56358;56.328;43.992;2023-07-22T07:02:28;99894.06;;;21.62;43.78
69247;BME280;56358;56.328;43.992;2023-07-22T07:04:29;99891.97;;;21.70;44.15
69247;BME280;56358;56.328;43.992;2023-07-22T07:06:30;99881.28;;;21.69;43.91
69247;BME280;56358;56.328;43.992;2023-07-22T07:08:31;99895.13;;;21.81;43.92
69247;BME280;56358;56.328;43.992;2023-07-22T07:10:38;99908.16;;;21.79;43.14
69247;BME280;56358;56.328;43.992;2023-07-22T07:12:39;99893.03;;;21.83;43.40
69247;BME280;56358;56.328;43.992;2023-07-22T07:14:40;99887.59;;;21.83;43.34
69247;BME280;56358;56.328;43.992;2023-07-22T07:16:41;99898.31;;;21.91;43.06
69247;BME280;56358;56.328;43.992;2023-07-22T07:18:42;99900.81;;;22.06;42.95
69247;BME280;56358;56.328;43.992;2023-07-22T07:20:42;99900.00;;;22.05;42.27
69247;BME280;56358;56.328;43.992;2023-07-22T07:22:43;99897.25;;;22.12;42.71
69247;BME280;56358;56.328;43.992;2023-07-22T07:24:44;99886.34;;;22.05;42.15
69247;BME280;56358;56.328;43.992;2023-07-22T07:26:44;99893.50;;;22.13;41.85
69247;BME280;56358;56.328;43.992;2023-07-22T07:28:46;99899.56;;;22.22;41.56
69247;BME280;56358;56.328;43.992;2023-07-22T07:30:47;99891.16;;;22.30;40.79
69247;BME280;56358;56.328;43.992;2023-07-22T07:32:48;99892.44;;;22.41;41.15
69247;BME280;56358;56.328;43.992;2023-07-22T07:34:48;99892.25;;;22.49;41.23
69247;BME280;56358;56.328;43.992;2023-07-22T07:36:49;99869.16;;;22.38;41.57
69247;BME280;56358;56.328;43.992;2023-07-22T07:38:50;99885.28;;;22.53;41.27
69247;BME280;56358;56.328;43.992;2023-07-22T07:40:56;99830.28;;;22.16;41.52
69247;BME280;56358;56.328;43.992;2023-07-22T07:42:57;99778.47;;;21.83;42.01
69247;BME280;56358;56.328;43.992;2023-07-22T07:44:58;99827.13;;;22.13;41.70
69247;BME280;56358;56.328;43.992;2023-07-22T07:46:58;99878.13;;;22.59;41.91
69247;BME280;56358;56.328;43.992;2023-07-22T07:49:00;99890.50;;;22.75;41.53
69247;BME280;56358;56.328;43.992;2023-07-22T07:51:02;99892.34;;;22.81;41.20
69247;BME280;56358;56.328;43.992;2023-07-22T07:53:03;99877.84;;;22.87;40.85
69247;BME280;56358;56.328;43.992;2023-07-22T07:55:04;99876.41;;;22.78;40.31
69247;BME280;56358;56.328;43.992;2023-07-22T07:57:06;99839.63;;;22.74;40.18
69247;BME280;56358;56.328;43.992;2023-07-22T07:59:06;99882.66;;;22.99;40.48
69247;BME280;56358;56.328;43.992;2023-07-22T08:01:09;99892.16;;;22.89;41.01
69247;BME280;56358;56.328;43.992;2023-07-22T08:03:10;99887.06;;;22.93;41.07
69247;BME280;56358;56.328;43.992;2023-07-22T08:05:11;99757.19;;;22.32;40.91
69247;BME280;56358;56.328;43.992;2023-07-22T08:07:15;99885.16;;;23.07;39.80
69247;BME280;56358;56.328;43.992;2023-07-22T08:09:16;99897.72;;;23.08;40.39
69247;BME280;56358;56.328;43.992;2023-07-22T08:11:20;99811.31;;;22.62;40.61
69247;BME280;56358;56.328;43.992;2023-07-22T08:13:20;99832.13;;;22.63;40.64
69247;BME280;56358;56.328;43.992;2023-07-22T08:15:21;99887.06;;;22.93;40.04
69247;BME280;56358;56.328;43.992;2023-07-22T08:17:22;99899.13;;;22.72;40.42
69247;BME280;56358;56.328;43.992;2023-07-22T08:19:22;99852.09;;;22.30;40.50
69247;BME280;56358;56.328;43.992;2023-07-22T08:21:23;99894.97;;;22.42;40.82
69247;BME280;56358;56.328;43.992;2023-07-22T08:23:24;99893.47;;;22.33;40.99
69247;BME280;56358;56.328;43.992;2023-07-22T08:25:25;99888.84;;;22.34;40.81
69247;BME280;56358;56.328;43.992;2023-07-22T08:27:25;99894.13;;;22.49;40.55
69247;BME280;56358;56.328;43.992;2023-07-22T08:29:26;99905.22;;;22.67;40.75
69247;BME280;56358;56.328;43.992;2023-07-22T08:31:27;99878.56;;;22.63;40.16
69247;BME280;56358;56.328;43.992;2023-07-22T08:33:27;99896.59;;;22.70;40.18
69247;BME280;56358;56.328;43.992;2023-07-22T08:35:28;99888.25;;;22.58;39.87
69247;BME280;56358;56.328;43.992;2023-07-22T08:37:31;99895.13;;;22.61;40.20
69247;BME280;56358;56.328;43.992;2023-07-22T08:39:32;99887.16;;;22.59;39.79
69247;BME280;56358;56.328;43.992;2023-07-22T08:41:32;99892.81;;;22.71;38.95
69247;BME280;56358;56.328;43.992;2023-07-22T08:43:34;99829.41;;;22.56;38.87
69247;BME280;56358;56.328;43.992;2023-07-22T08:45:38;99874.25;;;22.93;38.20
69247;BME280;56358;56.328;43.992;2023-07-22T08:47:46;99875.13;;;23.39;38.26
69247;BME280;56358;56.328;43.992;2023-07-22T08:49:51;99884.81;;;23.74;37.47
69247;BME280;56358;56.328;43.992;2023-07-22T08:51:54;99851.38;;;23.65;37.53
69247;BME280;56358;56.328;43.992;2023-07-22T08:53:56;99883.75;;;24.07;37.39
69247;BME280;56358;56.328;43.992;2023-07-22T08:55:57;99879.28;;;24.13;36.83
69247;BME280;56358;56.328;43.992;2023-07-22T08:57:58;99888.38;;;24.06;36.39
69247;BME280;56358;56.328;43.992;2023-07-22T08:59:59;99867.13;;;23.76;37.49
69247;BME280;56358;56.328;43.992;2023-07-22T09:02:01;99902.75;;;23.70;39.40
69247;BME280;56358;56.328;43.992;2023-07-22T09:04:02;99894.81;;;23.16;42.78
69247;BME280;56358;56.328;43.992;2023-07-22T09:06:04;99877.34;;;22.45;44.12
69247;BME280;56358;56.328;43.992;2023-07-22T09:08:09;99877.72;;;22.02;45.92
69247;BME280;56358;56.328;43.992;2023-07-22T09:10:10;99885.69;;;21.90;46.94
69247;BME280;56358;56.328;43.992;2023-07-22T09:12:13;99883.59;;;21.85;47.74
69247;BME280;56358;56.328;43.992;2023-07-22T09:14:15;99844.34;;;21.73;46.69
69247;BME280;56358;56.328;43.992;2023-07-22T09:16:19;99824.84;;;21.76;44.48
69247;BME280;56358;56.328;43.992;2023-07-22T09:18:20;99885.09;;;22.28;44.35
69247;BME280;56358;56.328;43.992;2023-07-22T09:20:21;99881.31;;;22.42;42.83
69247;BME280;56358;56.328;43.992;2023-07-22T09:22:26;99875.38;;;22.66;42.38
69247;BME280;56358;56.328;43.992;2023-07-22T09:24:27;99872.38;;;22.87;40.48
69247;BME280;56358;56.328;43.992;2023-07-22T09:26:32;99882.91;;;22.77;40.21
69247;BME280;56358;56.328;43.992;2023-07-22T09:28:48;99853.47;;;22.86;38.81
69247;BME280;56358;56.328;43.992;2023-07-22T09:31:01;99863.22;;;23.27;37.61
69247;BME280;56358;56.328;43.992;2023-07-22T09:33:04;99869.88;;;23.38;37.81
69247;BME280;56358;56.328;43.992;2023-07-22T09:35:05;99833.28;;;23.39;37.33
69247;BME280;56358;56.328;43.992;2023-07-22T09:37:10;99804.28;;;23.31;37.26
69247;BME280;56358;56.328;43.992;2023-07-22T09:39:14;99861.41;;;24.10;36.41
69247;BME280;56358;56.328;43.992;2023-07-22T09:41:18;99888.97;;;24.15;36.44
69247;BME280;56358;56.328;43.992;2023-07-22T09:43:21;99867.53;;;24.05;35.42
69247;BME280;56358;56.328;43.992;2023-07-22T09:45:24;99878.59;;;24.17;35.18
69247;BME280;56358;56.328;43.992;2023-07-22T09:47:25;99833.66;;;24.25;34.41
69247;BME280;56358;56.328;43.992;2023-07-22T09:49:26;99874.66;;;25.13;33.87
69247;BME280;56358;56.328;43.992;2023-07-22T09:51:33;99886.41;;;25.01;33.15
69247;BME280;56358;56.328;43.992;2023-07-22T09:53:34;99895.22;;;25.22;32.90
69247;BME280;56358;56.328;43.992;2023-07-22T09:55:34;99906.66;;;25.19;32.87
69247;BME280;56358;56.328;43.992;2023-07-22T09:57:35;99817.63;;;23.78;34.71
69247;BME280;56358;56.328;43.992;2023-07-22T09:59:37;99928.53;;;23.49;36.21
69247;BME280;56358;56.328;43.992;2023-07-22T10:01:39;99936.94;;;22.75;39.20
69247;BME280;56358;56.328;43.992;2023-07-22T10:03:43;99941.19;;;22.37;41.11
69247;BME280;56358;56.328;43.992;2023-07-22T10:05:45;99893.06;;;21.89;42.02
69247;BME280;56358;56.328;43.992;2023-07-22T10:09:54;99946.91;;;21.60;43.95
69247;BME280;56358;56.328;43.992;2023-07-22T10:11:56;99943.50;;;21.45;45.09
69247;BME280;56358;56.328;43.992;2023-07-22T10:13:56;99942.75;;;21.23;44.33
69247;BME280;56358;56.328;43.992;2023-07-22T10:15:57;99907.28;;;21.16;45.35
69247;BME280;56358;56.328;43.992;2023-07-22T10:18:00;99941.75;;;21.31;45.77
69247;BME280;56358;56.328;43.992;2023-07-22T10:20:02;99933.78;;;21.29;44.83
69247;BME280;56358;56.328;43.992;2023-07-22T10:22:08;99921.78;;;21.72;43.05
69247;BME280;56358;56.328;43.992;2023-07-22T10:24:11;99915.94;;;22.69;41.80
69247;BME280;56358;56.328;43.992;2023-07-22T10:26:12;99922.69;;;23.77;39.54
69247;BME280;56358;56.328;43.992;2023-07-22T10:28:15;99920.59;;;24.80;35.81
69247;BME280;56358;56.328;43.992;2023-07-22T10:30:17;99901.31;;;25.73;34.98
69247;BME280;56358;56.328;43.992;2023-07-22T10:32:19;99909.13;;;26.66;32.04
69247;BME280;56358;56.328;43.992;2023-07-22T10:34:25;99885.41;;;26.88;31.61
69247;BME280;56358;56.328;43.992;2023-07-22T10:36:29;99911.66;;;26.79;31.20